Time;durP1;ratioP1;P1;durP2;ratioP2;P2;SDS_P1;SDS_P2;PMS_P1;PMS_P2;Temp;Humidity;BMP_temperature;BMP_pressure;BME280_temperature;BME280_humidity;BME280_pressure;Samples;Min_cycle;Max_cycle;Signal;HPM_P1;HPM_P2
2022/08/11 00:01:13;;;;;;;3.87;2.60;;;20.60;52.30;;;;;;5062163;28;20434;-87
2022/08/11 00:03:53;;;;;;;2.93;2.63;;;21.00;53.70;;;;;;5079068;28;21268;-88
2022/08/11 00:06:27;;;;;;;2.70;2.50;;;20.40;52.70;;;;;;5074444;28;20533;-88
2022/08/11 00:08:54;;;;;;;5.30;2.87;;;20.40;53.30;;;;;;5057819;28;20457;-89
2022/08/11 00:11:21;;;;;;;2.97;2.47;;;20.10;53.30;;;;;;5060706;28;20423;-89
2022/08/11 00:13:49;;;;;;;6.70;2.90;;;20.00;53.70;;;;;;5058779;28;20440;-89
2022/08/11 00:16:18;;;;;;;6.43;2.93;;;20.00;54.10;;;;;;5059055;28;21453;-89
2022/08/11 00:18:47;;;;;;;2.70;2.50;;;19.90;54.70;;;;;;5080276;28;20793;-93
2022/08/11 00:21:14;;;;;;;4.87;2.57;;;21.70;56.50;;;;;;5059917;28;20418;-83
2022/08/11 00:23:46;;;;;;;3.87;2.90;;;19.80;56.00;;;;;;5057538;28;20467;-87
2022/08/11 00:26:16;;;;;;;3.97;2.63;;;19.60;56.00;;;;;;5063341;28;20450;-85
2022/08/11 00:28:42;;;;;;;4.20;3.00;;;19.40;56.60;;;;;;5055189;28;20441;-86
2022/08/11 00:31:18;;;;;;;8.43;2.80;;;19.20;57.60;;;;;;5058231;28;20868;-86
2022/08/11 00:33:44;;;;;;;3.90;2.83;;;19.10;58.00;;;;;;5060637;28;20184;-84
2022/08/11 00:36:14;;;;;;;7.60;3.33;;;19.10;58.70;;;;;;5072470;28;20446;-85
2022/08/11 00:38:42;;;;;;;3.53;2.80;;;19.20;58.90;;;;;;5057612;28;20802;-85
2022/08/11 00:41:21;;;;;;;3.67;3.00;;;19.10;58.20;;;;;;5064764;28;20427;-84
2022/08/11 00:44:13;;;;;;;8.17;3.00;;;19.10;59.00;;;;;;5057502;28;20515;-83
2022/08/11 00:47:08;;;;;;;2.60;2.40;;;19.00;62.30;;;;;;5055393;28;20457;-86
2022/08/11 00:50:28;;;;;;;3.23;2.57;;;18.60;62.80;;;;;;5055000;28;20441;-86
2022/08/11 00:53:32;;;;;;;4.43;2.70;;;18.60;63.50;;;;;;5004046;28;20989;-86
2022/08/11 00:56:45;;;;;;;4.10;3.20;;;18.40;64.10;;;;;;5057068;28;20500;-86
2022/08/11 00:59:32;;;;;;;6.43;3.00;;;18.30;64.90;;;;;;5007632;28;20431;-86
2022/08/11 01:02:08;;;;;;;3.23;2.70;;;18.30;66.50;;;;;;5048891;28;20583;-86
2022/08/11 01:04:56;;;;;;;5.60;2.50;;;18.20;67.60;;;;;;5058917;28;20497;-86
2022/08/11 01:08:06;;;;;;;2.90;2.67;;;18.00;69.80;;;;;;5054300;28;20428;-85
2022/08/11 01:11:01;;;;;;;2.90;2.23;;;17.90;71.00;;;;;;5052171;28;20439;-84
2022/08/11 01:14:00;;;;;;;4.33;3.20;;;17.90;73.90;;;;;;5054629;28;21272;-85
2022/08/11 01:16:57;;;;;;;3.50;3.20;;;17.70;74.90;;;;;;5053734;28;20467;-88
2022/08/11 01:19:45;;;;;;;4.30;2.77;;;17.70;75.20;;;;;;5055179;28;20434;-86
2022/08/11 01:23:02;;;;;;;4.47;3.30;;;17.70;77.60;;;;;;5067079;28;20452;-86
2022/08/11 01:25:43;;;;;;;6.13;2.83;;;17.70;77.80;;;;;;5014532;28;21272;-87
2022/08/11 01:28:39;;;;;;;4.20;2.97;;;17.40;78.30;;;;;;5055127;28;20426;-85
2022/08/11 01:31:43;;;;;;;7.50;3.00;;;17.40;79.60;;;;;;5057531;28;20431;-87
2022/08/11 01:34:49;;;;;;;4.17;3.20;;;17.40;82.20;;;;;;5058034;28;21219;-86
2022/08/11 01:37:54;;;;;;;7.03;2.97;;;17.30;83.60;;;;;;5062657;28;20445;-86
2022/08/11 01:40:40;;;;;;;2.70;2.33;;;17.10;86.40;;;;;;5058782;28;20431;-85
2022/08/11 01:46:38;;;;;;;4.83;3.07;;;17.20;87.00;;;;;;5055269;28;20441;-85
2022/08/11 01:49:20;;;;;;;3.47;3.00;;;17.40;86.00;;;;;;5059496;28;20423;-84
2022/08/11 01:52:23;;;;;;;4.10;3.20;;;17.30;87.10;;;;;;5064398;28;20441;-88
2022/08/11 01:55:04;;;;;;;4.00;3.23;;;17.20;86.90;;;;;;5076182;28;20470;-86
2022/08/11 01:57:44;;;;;;;4.93;3.47;;;17.20;88.30;;;;;;5056096;28;20453;-87
2022/08/11 02:00:25;;;;;;;3.93;3.10;;;17.20;87.90;;;;;;5058095;28;20458;-86
2022/08/11 02:03:23;;;;;;;5.37;2.97;;;17.20;88.20;;;;;;5062919;28;20453;-88
2022/08/11 02:08:57;;;;;;;3.50;3.20;;;17.20;90.50;;;;;;5060181;28;20422;-88
2022/08/11 02:11:35;;;;;;;3.10;2.50;;;17.10;90.20;;;;;;5068379;28;20432;-88
2022/08/11 02:14:13;;;;;;;4.63;3.47;;;17.20;90.70;;;;;;5059444;28;20193;-88
2022/08/11 02:16:52;;;;;;;3.50;3.20;;;17.30;90.70;;;;;;5061777;28;20899;-89
2022/08/11 02:25:52;;;;;;;5.00;2.77;;;17.10;90.00;;;;;;5060720;28;20474;-87
2022/08/11 02:28:27;;;;;;;10.30;3.07;;;17.00;91.40;;;;;;5061257;28;20500;-81
2022/08/11 02:33:50;;;;;;;5.77;3.23;;;17.00;90.70;;;;;;5062833;28;20433;-83
2022/08/11 02:36:21;;;;;;;4.20;3.13;;;17.00;91.20;;;;;;5061151;28;20461;-85
2022/08/11 02:39:08;;;;;;;7.70;3.30;;;16.90;91.80;;;;;;5059007;28;20423;-86
2022/08/11 02:42:22;;;;;;;3.97;2.73;;;16.70;92.20;;;;;;5059346;28;21544;-88
2022/08/11 02:45:26;;;;;;;5.27;3.20;;;16.70;93.00;;;;;;5057472;28;20438;-85
2022/08/11 02:51:17;;;;;;;4.40;2.83;;;16.60;94.30;;;;;;5063711;28;20798;-86
2022/08/11 02:54:01;;;;;;;6.40;2.67;;;16.70;94.40;;;;;;5060892;28;20446;-83
2022/08/11 02:56:43;;;;;;;3.77;2.77;;;16.80;94.30;;;;;;5072715;28;20471;-86
2022/08/11 02:59:56;;;;;;;4.50;3.37;;;16.90;94.30;;;;;;5061157;28;21153;-86
2022/08/11 03:02:53;;;;;;;3.83;3.03;;;16.80;93.40;;;;;;4954821;28;20549;-86
2022/08/11 03:05:33;;;;;;;3.27;2.60;;;16.60;94.40;;;;;;5074881;28;21009;-84
2022/08/11 03:08:36;;;;;;;4.33;3.33;;;16.70;94.20;;;;;;5067792;28;20424;-82
2022/08/11 03:17:54;;;;;;;3.00;2.70;;;16.50;96.00;;;;;;5065310;28;21202;-83
2022/08/11 03:20:37;;;;;;;5.60;3.67;;;16.40;95.90;;;;;;5053813;28;20446;-82
2022/08/11 03:23:25;;;;;;;4.03;3.30;;;16.30;96.70;;;;;;5070788;28;20462;-81
2022/08/11 03:26:14;;;;;;;3.75;3.25;;;16.20;96.90;;;;;;5066740;28;20458;-85
2022/08/11 03:29:00;;;;;;;3.93;2.80;;;16.20;98.50;;;;;;5063904;28;20256;-84
2022/08/11 03:31:52;;;;;;;4.15;2.97;;;16.20;98.60;;;;;;5074536;28;20500;-85
2022/08/11 03:34:24;;;;;;;9.47;3.47;;;16.20;98.40;;;;;;5069432;28;20678;-87
2022/08/11 03:36:52;;;;;;;6.37;3.40;;;16.10;99.30;;;;;;5073902;28;20939;-87
2022/08/11 03:39:58;;;;;;;6.05;2.90;;;16.20;99.10;;;;;;5075990;28;20438;-86
2022/08/11 03:42:52;;;;;;;4.00;2.72;;;16.20;98.80;;;;;;5072956;28;20196;-84
2022/08/11 03:45:35;;;;;;;3.75;2.60;;;16.20;99.10;;;;;;5064836;28;20236;-83
2022/08/11 03:48:26;;;;;;;3.20;2.80;;;16.10;98.90;;;;;;5077501;28;20564;-84
2022/08/11 03:51:10;;;;;;;4.23;3.23;;;16.10;99.90;;;;;;5072493;28;20994;-83
2022/08/11 03:53:57;;;;;;;4.23;2.90;;;16.20;99.80;;;;;;5070208;28;20500;-87
2022/08/11 03:56:29;;;;;;;5.57;2.80;;;15.90;99.90;;;;;;5063097;28;20480;-82
2022/08/11 03:59:16;;;;;;;4.07;3.25;;;15.60;99.90;;;;;;5061737;28;20235;-82
2022/08/11 04:02:09;;;;;;;4.35;2.92;;;15.70;99.90;;;;;;5060463;28;20455;-83
2022/08/11 04:05:16;;;;;;;3.45;2.63;;;15.60;99.90;;;;;;5061905;28;20567;-83
2022/08/11 04:08:03;;;;;;;4.30;3.90;;;15.70;99.90;;;;;;5064550;28;20184;-82
2022/08/11 04:11:02;;;;;;;3.80;2.95;;;15.60;99.90;;;;;;5060810;28;20185;-81
2022/08/11 04:13:41;;;;;;;4.13;3.23;;;15.70;99.90;;;;;;5053167;28;20165;-83
2022/08/11 04:16:40;;;;;;;4.32;3.00;;;15.70;99.90;;;;;;5061170;28;20446;-86
2022/08/11 04:20:03;;;;;;;4.00;2.83;;;15.70;99.90;;;;;;5067215;28;20547;-87
2022/08/11 04:23:02;;;;;;;6.75;3.30;;;15.60;99.90;;;;;;5066550;28;20230;-87
2022/08/11 04:25:47;;;;;;;4.70;3.05;;;15.40;99.90;;;;;;5063526;28;20197;-83
2022/08/11 04:28:22;;;;;;;3.92;2.78;;;15.40;99.90;;;;;;5063955;28;20168;-86
2022/08/11 04:30:50;;;;;;;6.18;3.78;;;15.50;99.90;;;;;;5065908;28;20207;-86
2022/08/11 04:33:36;;;;;;;5.47;3.33;;;15.90;99.90;;;;;;5086288;28;20260;-87
2022/08/11 04:40:02;;;;;;;4.67;2.67;;;17.10;99.90;;;;;;5022517;28;20251;-87
2022/08/11 04:45:37;;;;;;;5.90;3.30;;;18.30;97.40;;;;;;5060549;28;20485;-88
2022/08/11 05:04:04;;;;;;;4.70;3.20;;;21.90;80.50;;;;;;5064989;28;20461;-87
2022/08/11 05:06:51;;;;;;;4.53;3.43;;;23.40;72.90;;;;;;5069704;28;20442;-88
2022/08/11 05:09:46;;;;;;;5.23;2.60;;;24.30;71.40;;;;;;5068152;28;20453;-88
2022/08/11 05:12:30;;;;;;;6.97;3.47;;;26.20;67.40;;;;;;5066996;28;20441;-85
2022/08/11 05:36:11;;;;;;;5.30;4.70;;;35.00;39.20;;;;;;5071278;28;20434;-86
2022/08/11 05:58:01;;;;;;;4.70;4.40;;;35.90;35.50;;;;;;5066463;28;20441;-87
2022/08/11 06:00:28;;;;;;;8.87;5.93;;;36.50;34.20;;;;;;5066136;28;20481;-88
2022/08/11 06:02:59;;;;;;;5.90;5.40;;;37.10;33.10;;;;;;5061975;28;20455;-87
2022/08/11 06:05:33;;;;;;;6.53;5.90;;;37.40;32.60;;;;;;5061261;28;20449;-88
2022/08/11 06:07:58;;;;;;;6.57;6.10;;;37.70;32.00;;;;;;5072087;28;20429;-89
2022/08/11 06:10:39;;;;;;;8.13;6.37;;;37.80;31.20;;;;;;5074860;28;21024;-87
2022/08/11 06:13:06;;;;;;;6.73;5.80;;;37.70;31.00;;;;;;5074438;28;20548;-88
2022/08/11 06:15:42;;;;;;;8.53;6.87;;;38.10;30.70;;;;;;5070108;28;20453;-87
2022/08/11 06:18:10;;;;;;;7.10;6.60;;;38.50;30.80;;;;;;5084867;28;20553;-88
2022/08/11 06:20:45;;;;;;;7.30;6.70;;;39.20;30.10;;;;;;5068908;28;20506;-88
2022/08/11 06:23:13;;;;;;;8.60;7.90;;;40.50;29.50;;;;;;5066769;28;20533;-89
2022/08/11 06:25:40;;;;;;;8.50;7.80;;;40.70;28.70;;;;;;5069978;28;20453;-88
2022/08/11 06:28:07;;;;;;;8.43;7.83;;;41.10;28.40;;;;;;5088178;28;20862;-88
2022/08/11 06:30:42;;;;;;;9.27;8.50;;;42.10;27.20;;;;;;5067568;28;20412;-87
2022/08/11 06:33:18;;;;;;;8.40;7.80;;;42.50;26.80;;;;;;5068079;28;20427;-86
2022/08/11 06:35:58;;;;;;;8.83;8.33;;;42.50;27.20;;;;;;5074063;28;20452;-85
2022/08/11 06:38:48;;;;;;;10.57;9.70;;;43.10;26.80;;;;;;5068568;28;20993;-87
2022/08/11 06:41:48;;;;;;;9.17;8.47;;;43.20;25.90;;;;;;5073406;28;20457;-88
2022/08/11 06:44:21;;;;;;;9.87;8.90;;;43.20;25.90;;;;;;5075354;28;20476;-88
2022/08/11 06:46:50;;;;;;;10.80;9.30;;;43.40;25.90;;;;;;5070690;28;20544;-88
2022/08/11 06:52:08;;;;;;;9.83;8.83;;;44.00;25.60;;;;;;5065035;28;20430;-87
2022/08/11 06:54:40;;;;;;;11.03;9.90;;;44.50;25.30;;;;;;5066882;28;20418;-86
2022/08/11 07:02:45;;;;;;;10.53;9.83;;;43.70;25.20;;;;;;5072001;28;20469;-88
2022/08/11 07:05:21;;;;;;;11.27;9.30;;;43.90;25.10;;;;;;5069795;28;20446;-88
2022/08/11 07:17:13;;;;;;;10.70;10.00;;;43.90;24.50;;;;;;5073833;28;20522;-88
2022/08/11 07:31:13;;;;;;;11.80;10.33;;;43.70;25.00;;;;;;5068124;28;20514;-88
2022/08/11 07:33:45;;;;;;;11.93;11.10;;;43.10;25.10;;;;;;5071432;28;20424;-87
2022/08/11 07:36:12;;;;;;;11.50;11.00;;;43.80;25.00;;;;;;5069116;28;20534;-88
2022/08/11 07:38:43;;;;;;;12.07;11.40;;;44.80;24.20;;;;;;5069945;28;20426;-89
2022/08/11 07:41:17;;;;;;;12.13;11.50;;;44.80;24.60;;;;;;5067189;28;20441;-91
2022/08/11 07:43:47;;;;;;;11.70;11.10;;;45.10;24.10;;;;;;5070818;28;21075;-89
2022/08/11 07:54:30;;;;;;;11.10;10.30;;;41.50;25.80;;;;;;5074277;28;20413;-85
2022/08/11 07:56:57;;;;;;;11.80;11.00;;;41.60;25.90;;;;;;5073379;28;20434;-86
2022/08/11 08:18:39;;;;;;;12.43;11.30;;;40.50;26.30;;;;;;5071655;28;21120;-89
2022/08/11 08:21:13;;;;;;;11.97;11.10;;;40.30;27.30;;;;;;5067017;28;20483;-88
2022/08/11 08:23:49;;;;;;;12.73;11.73;;;41.00;27.40;;;;;;5073323;28;20437;-87
2022/08/11 08:31:47;;;;;;;12.37;11.60;;;41.90;26.00;;;;;;5071205;28;20516;-88
2022/08/11 08:34:14;;;;;;;11.33;10.70;;;41.60;26.30;;;;;;5057236;28;20418;-87
2022/08/11 08:36:49;;;;;;;11.13;10.57;;;41.50;26.50;;;;;;5052331;28;20488;-89
2022/08/11 08:39:19;;;;;;;11.33;10.63;;;41.40;26.50;;;;;;5068955;28;20415;-90
2022/08/11 08:41:48;;;;;;;11.70;11.00;;;43.10;25.20;;;;;;5052835;28;20479;-90
2022/08/11 08:44:16;;;;;;;11.80;11.10;;;43.90;24.60;;;;;;5068310;28;20438;-86
2022/08/11 08:46:44;;;;;;;13.17;12.00;;;44.30;23.90;;;;;;5053151;28;20960;-89
2022/08/11 08:49:15;;;;;;;13.07;12.30;;;42.30;24.80;;;;;;5052591;28;20424;-89
2022/08/11 08:51:45;;;;;;;13.20;12.50;;;42.10;25.00;;;;;;5052966;28;20388;-90
2022/08/11 08:54:18;;;;;;;12.70;11.53;;;39.90;26.00;;;;;;5058163;28;20426;-88
2022/08/11 08:56:45;;;;;;;12.43;11.60;;;39.30;27.10;;;;;;5063900;28;20469;-86
2022/08/11 08:59:13;;;;;;;13.07;11.77;;;40.10;27.40;;;;;;5060848;28;20505;-88
2022/08/11 09:01:48;;;;;;;11.03;10.53;;;41.60;26.40;;;;;;5070734;28;20432;-87
2022/08/11 09:04:14;;;;;;;12.97;11.80;;;41.00;26.00;;;;;;5072756;28;20939;-89
2022/08/11 09:06:43;;;;;;;10.50;9.90;;;38.80;25.30;;;;;;5071012;28;20449;-84
2022/08/11 09:09:13;;;;;;;10.57;10.00;;;37.60;26.60;;;;;;5067932;28;20500;-88
2022/08/11 09:11:52;;;;;;;11.77;10.67;;;36.80;26.90;;;;;;5058104;28;21085;-88
2022/08/11 09:14:19;;;;;;;10.00;9.40;;;36.40;27.60;;;;;;5063249;28;20425;-88
2022/08/11 09:16:46;;;;;;;9.87;9.07;;;36.40;27.70;;;;;;5061635;28;20449;-87
2022/08/11 09:19:16;;;;;;;9.20;8.70;;;35.40;28.20;;;;;;5051668;28;20941;-81
2022/08/11 09:21:43;;;;;;;9.40;8.80;;;35.30;29.10;;;;;;5062266;28;20846;-86
2022/08/11 09:26:58;;;;;;;9.60;8.93;;;36.50;28.70;;;;;;5056791;28;20421;-84
2022/08/11 09:29:27;;;;;;;8.70;8.00;;;36.20;27.40;;;;;;5060274;28;20450;-85
2022/08/11 09:31:54;;;;;;;8.10;7.60;;;35.20;27.30;;;;;;5060446;28;20447;-84
2022/08/11 09:34:20;;;;;;;8.57;8.00;;;34.50;27.50;;;;;;5062756;28;21045;-85
2022/08/11 09:42:21;;;;;;;8.10;7.50;;;33.90;28.90;;;;;;5059426;28;20552;-88
2022/08/11 09:44:48;;;;;;;7.23;6.73;;;34.00;28.20;;;;;;5058886;28;21062;-87
2022/08/11 09:47:26;;;;;;;7.93;7.33;;;34.00;28.70;;;;;;5067810;28;20813;-86
2022/08/11 09:49:58;;;;;;;6.80;6.40;;;34.00;27.70;;;;;;5076625;28;20444;-86
2022/08/11 09:52:25;;;;;;;7.87;7.37;;;33.30;28.20;;;;;;5071749;28;20439;-89
2022/08/11 09:54:52;;;;;;;8.07;7.43;;;33.20;27.50;;;;;;5075824;28;20754;-89
2022/08/11 10:00:11;;;;;;;7.57;7.00;;;32.90;28.30;;;;;;5078908;28;21112;-89
2022/08/11 10:02:42;;;;;;;7.37;6.77;;;33.00;29.20;;;;;;5078721;28;20451;-87
2022/08/11 10:07:55;;;;;;;6.50;6.10;;;33.60;28.70;;;;;;5068256;28;20411;-89
2022/08/11 10:10:22;;;;;;;7.37;6.77;;;33.50;28.20;;;;;;5073677;28;20435;-89
2022/08/11 10:12:58;;;;;;;7.50;7.00;;;34.20;28.50;;;;;;5074190;28;20412;-88
2022/08/11 10:15:32;;;;;;;7.40;6.90;;;34.00;27.60;;;;;;5078246;28;20551;-89
2022/08/11 10:20:54;;;;;;;9.70;7.10;;;34.20;27.60;;;;;;5063657;28;20465;-89
2022/08/11 10:28:52;;;;;;;7.33;6.70;;;33.10;28.90;;;;;;5058056;28;20408;-88
2022/08/11 10:34:06;;;;;;;6.50;6.00;;;31.50;29.30;;;;;;5059443;28;20386;-89
2022/08/11 10:36:42;;;;;;;5.40;4.97;;;30.30;29.90;;;;;;5059508;28;20427;-89
2022/08/11 10:39:09;;;;;;;4.83;4.40;;;30.10;30.50;;;;;;5057900;28;20396;-89
2022/08/11 10:44:21;;;;;;;4.50;4.00;;;29.40;30.60;;;;;;5062930;28;20482;-89
2022/08/11 10:49:32;;;;;;;4.40;3.20;;;29.20;31.90;;;;;;5059234;28;20417;-88
2022/08/11 11:00:15;;;;;;;6.23;3.00;;;28.90;31.50;;;;;;5079760;28;20429;-88
2022/08/11 11:02:42;;;;;;;3.20;2.83;;;28.80;32.10;;;;;;5071299;28;20464;-87
2022/08/11 11:05:29;;;;;;;3.00;2.23;;;29.00;32.60;;;;;;5077982;28;20451;-87
2022/08/11 11:08:51;;;;;;;2.37;2.10;;;29.30;31.60;;;;;;5079363;28;20426;-87
2022/08/11 11:10:58;;;;;;;7.07;2.80;;;29.30;31.30;;;;;;5077586;28;20427;-87
2022/08/11 11:18:56;;;;;;;5.37;2.60;;;29.20;31.10;;;;;;5057525;28;20911;-87
2022/08/11 11:21:24;;;;;;;5.70;2.30;;;29.20;30.60;;;;;;5075918;28;21398;-88
2022/08/11 11:24:15;;;;;;;3.23;2.30;;;29.30;31.30;;;;;;5069821;28;20465;-89
2022/08/11 11:27:11;;;;;;;2.83;2.53;;;29.40;31.40;;;;;;5076505;28;20470;-87
2022/08/11 11:30:01;;;;;;;3.30;2.70;;;29.50;32.30;;;;;;5057312;28;20495;-87
2022/08/11 11:32:50;;;;;;;3.10;2.77;;;29.70;32.20;;;;;;5062131;28;20443;-87
2022/08/11 11:35:30;;;;;;;6.17;3.17;;;29.90;31.40;;;;;;5063722;28;20584;-89
2022/08/11 11:37:56;;;;;;;4.37;2.77;;;29.90;31.30;;;;;;5089811;28;20953;-88
2022/08/11 11:40:23;;;;;;;3.13;2.20;;;29.80;31.30;;;;;;5058386;28;20479;-89
2022/08/11 11:42:57;;;;;;;3.17;2.13;;;29.50;31.10;;;;;;5057484;28;20542;-89
2022/08/11 11:45:24;;;;;;;4.57;3.00;;;29.50;31.20;;;;;;5073535;28;20435;-89
2022/08/11 11:47:52;;;;;;;4.00;2.60;;;29.70;31.10;;;;;;5056420;28;20415;-88
2022/08/11 11:50:27;;;;;;;3.40;2.57;;;29.70;30.90;;;;;;5055851;28;20420;-88
2022/08/11 11:52:54;;;;;;;6.17;2.80;;;29.70;31.10;;;;;;5058058;28;20448;-89
2022/08/11 11:55:23;;;;;;;8.23;3.10;;;29.70;30.00;;;;;;5075165;28;20450;-89
2022/08/11 12:03:19;;;;;;;2.70;2.50;;;29.70;30.50;;;;;;5062926;28;20819;-89
2022/08/11 12:05:46;;;;;;;6.90;2.97;;;29.80;30.00;;;;;;5064340;28;20435;-89
2022/08/11 12:08:16;;;;;;;3.77;2.60;;;29.80;30.00;;;;;;5055061;28;20411;-89
2022/08/11 12:10:43;;;;;;;3.80;2.60;;;29.80;30.00;;;;;;5071758;28;20412;-89
2022/08/11 12:15:54;;;;;;;2.33;2.00;;;31.00;30.70;;;;;;5059329;28;20462;-89
2022/08/11 12:18:20;;;;;;;4.47;2.63;;;30.40;29.90;;;;;;5067558;28;20416;-89
2022/08/11 12:20:46;;;;;;;3.20;2.33;;;30.50;29.90;;;;;;5067642;28;20184;-89
2022/08/11 12:28:43;;;;;;;3.20;2.73;;;30.10;29.10;;;;;;5057347;28;20402;-89
2022/08/11 12:31:09;;;;;;;3.70;2.50;;;30.00;29.20;;;;;;5068657;28;20404;-89
2022/08/11 12:33:37;;;;;;;2.60;2.40;;;30.10;29.60;;;;;;5053442;28;20414;-89
2022/08/11 12:36:03;;;;;;;3.20;2.77;;;30.20;29.30;;;;;;5068871;28;20439;-89
2022/08/11 12:38:31;;;;;;;3.80;2.50;;;30.20;29.20;;;;;;5053783;28;20810;-88
2022/08/11 12:46:37;;;;;;;5.43;2.60;;;30.40;29.40;;;;;;5055609;28;21054;-89
2022/08/11 12:52:00;;;;;;;3.27;2.63;;;30.30;29.00;;;;;;5074978;28;20983;-89
2022/08/11 12:54:44;;;;;;;2.93;2.63;;;30.20;29.00;;;;;;5073914;28;20391;-89
2022/08/11 13:05:32;;;;;;;3.30;2.20;;;30.40;29.00;;;;;;5062422;28;20505;-89
2022/08/11 13:07:59;;;;;;;3.27;2.67;;;30.60;28.20;;;;;;5069863;28;20419;-89
2022/08/11 13:13:22;;;;;;;2.27;2.07;;;30.80;27.80;;;;;;4984078;28;21020;-89
2022/08/11 13:15:50;;;;;;;2.47;2.20;;;30.80;27.90;;;;;;5076844;28;20427;-89
2022/08/11 13:18:21;;;;;;;3.23;1.87;;;30.70;28.00;;;;;;5071897;28;20991;-89
2022/08/11 13:20:52;;;;;;;3.10;2.50;;;30.50;28.10;;;;;;5070586;28;20438;-89
2022/08/11 13:23:18;;;;;;;4.20;2.13;;;30.50;28.60;;;;;;5073463;28;20465;-89
2022/08/11 13:25:44;;;;;;;5.30;2.43;;;30.30;28.50;;;;;;5075782;28;20438;-89
2022/08/11 13:28:11;;;;;;;2.70;2.43;;;30.20;28.60;;;;;;5074950;28;20978;-89
2022/08/11 13:33:21;;;;;;;5.10;2.27;;;30.30;28.30;;;;;;5062061;28;20458;-89
2022/08/11 13:35:50;;;;;;;4.53;2.90;;;30.40;28.70;;;;;;5071634;28;20940;-89
2022/08/11 13:38:18;;;;;;;3.13;2.30;;;30.70;28.00;;;;;;5071416;28;20181;-89
2022/08/11 13:40:44;;;;;;;2.23;2.00;;;31.10;28.50;;;;;;5064861;28;20447;-89
2022/08/11 13:43:12;;;;;;;4.40;2.33;;;30.60;28.60;;;;;;5069810;28;20469;-89
2022/08/11 13:45:39;;;;;;;2.77;2.17;;;30.60;28.40;;;;;;5076359;28;20817;-88
2022/08/11 13:48:08;;;;;;;2.20;2.00;;;30.60;28.00;;;;;;5077728;28;20913;-89
2022/08/11 13:53:24;;;;;;;6.53;1.90;;;30.80;28.00;;;;;;5076194;28;20763;-89
2022/08/11 13:55:50;;;;;;;2.77;2.10;;;30.90;27.70;;;;;;5074215;28;21165;-89
2022/08/11 13:58:16;;;;;;;1.93;1.83;;;30.80;27.60;;;;;;5074308;28;20415;-89
2022/08/11 14:00:51;;;;;;;2.40;2.20;;;30.60;27.50;;;;;;5075362;28;20471;-89
2022/08/11 14:03:24;;;;;;;4.23;2.60;;;30.60;27.80;;;;;;5073972;28;20961;-89
2022/08/11 14:05:55;;;;;;;2.43;2.23;;;30.70;27.90;;;;;;5074966;28;20441;-89
2022/08/11 14:08:26;;;;;;;2.60;2.17;;;30.70;27.60;;;;;;5074003;28;20421;-89
2022/08/11 14:13:43;;;;;;;2.40;2.20;;;30.90;27.90;;;;;;5077230;28;20463;-89
2022/08/11 14:16:20;;;;;;;2.93;2.00;;;30.90;27.50;;;;;;5074414;28;20426;-89
2022/08/11 14:18:49;;;;;;;6.17;2.00;;;30.90;28.00;;;;;;5068997;28;20426;-89
2022/08/11 14:24:03;;;;;;;2.27;1.87;;;30.80;27.90;;;;;;5072216;28;20461;-89
2022/08/11 14:26:35;;;;;;;2.97;2.20;;;31.00;28.10;;;;;;5075001;28;20431;-90
2022/08/11 14:29:12;;;;;;;2.60;2.40;;;31.00;28.10;;;;;;5075733;28;20391;-90
2022/08/11 14:31:43;;;;;;;2.63;2.20;;;30.70;27.50;;;;;;5074046;28;20429;-89
2022/08/11 14:34:11;;;;;;;3.60;2.50;;;30.70;27.90;;;;;;5066346;28;20426;-89
2022/08/11 14:36:44;;;;;;;4.90;2.37;;;31.00;28.50;;;;;;5064975;28;20459;-89
2022/08/11 14:39:16;;;;;;;2.57;2.20;;;30.90;27.70;;;;;;5086752;28;20434;-90
2022/08/11 14:47:21;;;;;;;5.93;2.40;;;31.20;27.60;;;;;;5059033;28;20869;-89
2022/08/11 14:49:50;;;;;;;3.30;1.80;;;31.30;27.90;;;;;;5074941;28;20436;-89
2022/08/11 14:52:19;;;;;;;2.83;2.60;;;30.60;27.60;;;;;;5071009;28;20426;-88
2022/08/11 14:57:35;;;;;;;2.53;2.33;;;32.20;28.20;;;;;;5060208;28;20453;-89
2022/08/11 15:00:03;;;;;;;6.57;2.50;;;30.80;27.40;;;;;;5068657;28;21140;-89
2022/08/11 15:05:15;;;;;;;2.40;2.00;;;30.70;27.30;;;;;;5059805;28;20516;-89
2022/08/11 15:07:41;;;;;;;2.17;1.97;;;30.90;27.30;;;;;;5062911;28;20522;-89
2022/08/11 15:10:08;;;;;;;2.10;1.63;;;30.60;26.70;;;;;;5077879;28;20443;-87
2022/08/11 15:12:38;;;;;;;2.53;2.00;;;30.50;27.20;;;;;;5064472;28;20450;-87
2022/08/11 15:17:52;;;;;;;3.43;1.90;;;30.50;26.90;;;;;;5057691;28;20448;-88
2022/08/11 15:26:04;;;;;;;2.73;2.33;;;30.60;27.40;;;;;;5067337;28;20503;-86
2022/08/11 15:39:36;;;;;;;2.60;2.00;;;30.20;27.60;;;;;;5060183;28;20430;-85
2022/08/11 15:47:56;;;;;;;3.83;2.20;;;30.40;28.10;;;;;;5054648;28;20437;-88
2022/08/11 15:50:29;;;;;;;3.00;1.77;;;30.40;27.70;;;;;;5069840;28;20399;-89
2022/08/11 15:53:19;;;;;;;6.10;2.50;;;30.30;28.00;;;;;;5070220;28;20619;-87
2022/08/11 15:55:46;;;;;;;2.80;2.30;;;30.30;28.60;;;;;;5057899;28;20509;-88
2022/08/11 16:04:10;;;;;;;3.43;2.53;;;30.30;28.00;;;;;;5075523;28;20815;-86
2022/08/11 16:06:46;;;;;;;2.47;2.27;;;30.10;27.90;;;;;;5073801;28;20522;-87
2022/08/11 16:09:14;;;;;;;13.10;2.50;;;30.10;28.30;;;;;;5073237;28;20437;-87
2022/08/11 16:11:41;;;;;;;3.87;1.90;;;30.10;28.60;;;;;;5070130;28;20497;-84
2022/08/11 16:16:56;;;;;;;2.50;2.30;;;29.80;28.80;;;;;;5070979;28;20534;-85
2022/08/11 16:19:23;;;;;;;2.63;2.17;;;29.80;29.20;;;;;;5054338;28;20431;-87
2022/08/11 16:21:51;;;;;;;2.97;2.60;;;29.90;28.80;;;;;;5055771;28;20426;-87
2022/08/11 16:24:20;;;;;;;3.20;2.80;;;30.00;28.50;;;;;;5058990;28;20527;-88
2022/08/11 16:26:46;;;;;;;3.67;2.90;;;29.90;28.80;;;;;;5060001;28;21019;-89
2022/08/11 16:29:13;;;;;;;4.40;2.60;;;30.30;29.90;;;;;;5066970;28;20473;-87
2022/08/11 16:31:41;;;;;;;4.73;2.87;;;29.90;30.00;;;;;;5059089;28;20446;-87
2022/08/11 16:38:33;;;;;;;3.13;2.40;;;29.90;29.90;;;;;;5060898;28;20496;-87
2022/08/11 16:39:43;;;;;;;5.13;2.80;;;29.80;30.20;;;;;;5060270;28;20530;-85
2022/08/11 16:47:44;;;;;;;3.23;2.93;;;29.70;30.30;;;;;;5057916;28;20505;-87
2022/08/11 16:50:10;;;;;;;3.53;3.00;;;29.70;30.00;;;;;;5057115;28;20443;-88
2022/08/11 16:52:36;;;;;;;2.80;2.60;;;29.50;30.20;;;;;;5060089;28;20492;-87
2022/08/11 16:55:02;;;;;;;4.77;2.80;;;29.50;30.30;;;;;;5057327;28;20878;-87
2022/08/11 17:00:16;;;;;;;2.53;2.27;;;29.40;30.40;;;;;;5068858;28;20484;-87
2022/08/11 17:14:30;;;;;;;4.63;3.27;;;29.10;31.10;;;;;;5067082;28;20492;-85
2022/08/11 17:16:59;;;;;;;2.60;2.40;;;29.20;30.80;;;;;;5061142;28;20456;-85
2022/08/11 17:19:30;;;;;;;5.27;3.00;;;29.20;30.90;;;;;;5068745;28;20427;-88
2022/08/11 17:24:44;;;;;;;5.27;3.40;;;28.90;30.50;;;;;;5056110;28;20445;-86
2022/08/11 17:27:15;;;;;;;3.17;2.77;;;28.90;31.10;;;;;;5052765;28;20407;-84
2022/08/11 17:29:48;;;;;;;4.13;3.30;;;28.80;31.10;;;;;;5053515;28;20397;-86
2022/08/11 17:35:29;;;;;;;4.53;4.00;;;28.50;30.40;;;;;;5055047;28;20446;-85
2022/08/11 17:38:11;;;;;;;4.97;3.13;;;28.50;30.90;;;;;;5054392;28;20491;-85
2022/08/11 17:48:23;;;;;;;3.73;3.30;;;28.40;31.00;;;;;;5067351;28;20536;-87
2022/08/11 17:48:55;;;;;;;5.33;3.37;;;28.10;31.60;;;;;;5056454;28;20457;-86
2022/08/11 17:59:51;;;;;;;3.83;3.43;;;27.80;32.40;;;;;;5063524;28;20441;-87
2022/08/11 18:05:17;;;;;;;4.50;4.00;;;27.50;32.60;;;;;;5065232;28;20456;-87
